KHHG

Huntington Municipal Airport

Huntington, Indiana, USA
METAR KHHG 230255Z AUTO 33003KT 10SM SCT023 16/14 A3006 RMK AO2 T01590137
Observed Flight Rules
May-23 @ 02:55 UTC (24 minutes ago) Visual Flight Rules
Wind Visibility Clouds
330° at 3 knots 10 miles
  • Scattered at 2,300' AGL
Temperatures Readings
Current 16°C / 61°F
Dewpoint 14°C / 57°F
Humidity 88%
Altimeter 30.06" Hg
Pressure 1018 hPa
Elevation 246
METAR KHHG 230255Z AUTO 33003KT 10SM SCT023 16/14 A3006 RMK AO2 T01590137
Observed Flight Rules
May-23 @ 02:55 UTC
(24 minutes ago)
VFR
Wind Visibility
330° at 3 knots 10 miles
Clouds
  • Scattered at 2,300' AGL
Temperature Dewpoint
16°C / 61°F 14°C / 57°F
Humidity Altimeter Pressure
88% 30.06" Hg 1018 hPa